Time;durP1;ratioP1;P1;durP2;ratioP2;P2;SDS_P1;SDS_P2;PMS_P1;PMS_P2;Temp;Humidity;BMP_temperature;BMP_pressure;BME280_temperature;BME280_humidity;BME280_pressure;Samples;Min_cycle;Max_cycle;Signal;HPM_P1;HPM_P2
2020/12/28 00:09:40;;;;;;;0.15;0.15;;;10.80;61.80;;;;;;20708059;28;20070;-70
2020/12/28 00:19:41;;;;;;;0.20;0.20;;;10.80;61.80;;;;;;20745285;28;20096;-70
2020/12/28 00:29:41;;;;;;;0.13;0.13;;;10.80;61.80;;;;;;20738855;28;20127;-71
2020/12/28 00:39:42;;;;;;;0.20;0.20;;;10.80;61.80;;;;;;20725983;28;20399;-71
2020/12/28 00:49:43;;;;;;;0.20;0.20;;;10.80;61.90;;;;;;20691155;28;20081;-71
2020/12/28 00:59:43;;;;;;;0.10;0.10;;;10.80;62.00;;;;;;20738973;28;20120;-71
2020/12/28 01:09:47;;;;;;;0.20;0.20;;;10.80;62.00;;;;;;20720710;28;20040;-70
2020/12/28 01:19:49;;;;;;;0.13;0.10;;;10.80;62.10;;;;;;20701301;28;20034;-71
2020/12/28 01:29:51;;;;;;;0.10;0.10;;;10.70;62.00;;;;;;20717674;28;20115;-69
2020/12/28 01:39:52;;;;;;;0.00;0.00;;;10.80;62.20;;;;;;20730363;28;20029;-71
2020/12/28 01:49:53;;;;;;;0.08;0.08;;;10.70;62.10;;;;;;20724929;28;20080;-70
2020/12/28 01:59:54;;;;;;;0.22;0.10;;;10.80;62.20;;;;;;20714524;28;20495;-70
2020/12/28 02:10:14;;;;;;;0.25;0.10;;;10.80;62.20;;;;;;20705149;28;20055;-70
2020/12/28 02:20:15;;;;;;;0.28;0.15;;;10.70;62.20;;;;;;20742025;28;20033;-72
2020/12/28 02:30:18;;;;;;;0.00;0.00;;;10.70;62.30;;;;;;20726127;28;20030;-70
2020/12/28 02:40:38;;;;;;;0.00;0.00;;;10.70;62.30;;;;;;20741940;28;20120;-69
2020/12/28 02:50:40;;;;;;;0.05;0.05;;;10.70;62.30;;;;;;20735452;28;20113;-71
2020/12/28 03:01:01;;;;;;;0.30;0.20;;;10.70;62.40;;;;;;20738965;28;20033;-71
2020/12/28 03:11:20;;;;;;;2.40;0.10;;;10.70;62.40;;;;;;20724297;28;20046;-70
2020/12/28 03:21:39;;;;;;;0.20;0.10;;;10.70;62.40;;;;;;20725822;28;20051;-70
2020/12/28 03:31:59;;;;;;;0.40;0.10;;;10.70;62.50;;;;;;20732089;28;20064;-71
2020/12/28 03:42:18;;;;;;;0.90;0.10;;;10.70;62.50;;;;;;20717315;28;20050;-69
2020/12/28 03:52:39;;;;;;;0.00;0.00;;;10.70;62.50;;;;;;20725295;28;20037;-70
2020/12/28 04:02:58;;;;;;;0.15;0.15;;;10.70;62.50;;;;;;20721945;28;20041;-69
2020/12/28 04:13:18;;;;;;;0.00;0.00;;;10.70;62.50;;;;;;20719891;28;20050;-69
2020/12/28 04:23:19;;;;;;;1.55;0.22;;;10.70;62.60;;;;;;20715388;28;20034;-69
2020/12/28 04:33:20;;;;;;;0.00;0.00;;;10.70;62.50;;;;;;20727670;28;20046;-69
2020/12/28 04:43:20;;;;;;;0.00;0.00;;;10.70;62.50;;;;;;20733772;28;20062;-71
2020/12/28 04:53:21;;;;;;;0.10;0.10;;;10.60;62.40;;;;;;20716175;28;20035;-71
2020/12/28 05:03:23;;;;;;;0.10;0.10;;;10.70;62.50;;;;;;20727464;28;20070;-69
2020/12/28 05:13:24;;;;;;;0.10;0.10;;;10.60;62.40;;;;;;20741301;28;20103;-70
2020/12/28 05:23:24;;;;;;;0.08;0.08;;;10.70;62.80;;;;;;20693754;28;20132;-71
2020/12/28 05:33:34;;;;;;;0.10;0.10;;;11.00;62.70;;;;;;20748993;28;20060;-72
2020/12/28 05:43:34;;;;;;;0.47;0.15;;;11.30;62.10;;;;;;20722299;28;20042;-71
2020/12/28 05:53:36;;;;;;;0.70;0.38;;;11.60;61.20;;;;;;20731408;28;20037;-70
2020/12/28 06:03:40;;;;;;;0.38;0.20;;;11.80;60.40;;;;;;20731624;28;20037;-75
2020/12/28 06:13:42;;;;;;;0.10;0.10;;;11.90;59.70;;;;;;20740963;28;20544;-72
2020/12/28 06:23:49;;;;;;;0.77;0.17;;;12.10;59.20;;;;;;20718187;28;20469;-73
2020/12/28 06:33:50;;;;;;;0.10;0.10;;;12.10;58.60;;;;;;20736472;28;20037;-70
2020/12/28 06:43:50;;;;;;;0.10;0.10;;;11.80;58.40;;;;;;20731747;28;20472;-70
2020/12/28 06:53:54;;;;;;;0.38;0.20;;;11.60;58.50;;;;;;20702189;28;20118;-76
2020/12/28 07:03:55;;;;;;;0.60;0.20;;;11.50;58.80;;;;;;20735508;28;20097;-70
2020/12/28 07:14:04;;;;;;;0.47;0.20;;;11.40;59.40;;;;;;20718148;28;20121;-70
2020/12/28 07:24:08;;;;;;;0.15;0.10;;;11.30;59.70;;;;;;20712405;28;20038;-71
2020/12/28 07:34:16;;;;;;;0.50;0.17;;;11.20;59.90;;;;;;20725167;28;20046;-70
2020/12/28 07:44:16;;;;;;;0.82;0.20;;;11.20;60.90;;;;;;20722213;28;20042;-72
2020/12/28 07:54:21;;;;;;;0.10;0.10;;;11.30;60.30;;;;;;20695657;28;20065;-72
2020/12/28 08:04:22;;;;;;;0.38;0.38;;;11.20;60.20;;;;;;20710118;28;20125;-73
2020/12/28 08:14:23;;;;;;;0.40;0.17;;;11.20;60.20;;;;;;20693383;28;20050;-73
2020/12/28 08:24:24;;;;;;;0.08;0.08;;;11.20;60.30;;;;;;20726999;28;20476;-75
2020/12/28 08:34:27;;;;;;;0.77;0.28;;;11.20;60.40;;;;;;20716715;28;20050;-72
2020/12/28 08:44:35;;;;;;;0.28;0.28;;;11.20;60.40;;;;;;20749510;28;20026;-71
2020/12/28 08:54:36;;;;;;;0.35;0.30;;;11.20;60.50;;;;;;20720028;28;20034;-70
2020/12/28 09:04:36;;;;;;;0.30;0.30;;;11.20;60.80;;;;;;20698122;28;20029;-74
2020/12/28 09:14:37;;;;;;;0.10;0.10;;;11.50;61.10;;;;;;21116588;23;20074;-72
2020/12/28 09:24:37;;;;;;;0.45;0.25;;;11.70;61.00;;;;;;20584919;28;20109;-71
2020/12/28 09:34:38;;;;;;;0.85;0.80;;;12.00;59.30;;;;;;20662914;28;20458;-71
2020/12/28 09:44:40;;;;;;;0.65;0.40;;;11.80;58.70;;;;;;20671245;28;20045;-75
2020/12/28 09:54:41;;;;;;;0.95;0.57;;;11.80;58.80;;;;;;20660720;28;20039;-72
2020/12/28 10:04:41;;;;;;;2.47;0.63;;;11.60;58.70;;;;;;20650999;28;20293;-73
2020/12/28 10:14:42;;;;;;;0.22;0.22;;;11.50;59.00;;;;;;20637247;28;20046;-74
2020/12/28 10:24:42;;;;;;;3.22;0.63;;;11.40;59.20;;;;;;20651249;28;20065;-74
2020/12/28 10:34:43;;;;;;;0.40;0.20;;;11.40;59.30;;;;;;20612928;28;20038;-71
2020/12/28 10:44:43;;;;;;;0.75;0.52;;;11.30;59.40;;;;;;20637890;28;20032;-71
2020/12/28 10:54:44;;;;;;;0.47;0.38;;;11.30;59.60;;;;;;20631704;28;20045;-73
2020/12/28 11:04:45;;;;;;;1.15;0.68;;;11.20;59.90;;;;;;20654695;28;20030;-70
2020/12/28 11:14:45;;;;;;;0.55;0.32;;;11.20;60.10;;;;;;20626102;28;20057;-72
2020/12/28 11:24:46;;;;;;;0.73;0.30;;;11.20;60.30;;;;;;20626506;28;20031;-75
2020/12/28 11:34:47;;;;;;;0.08;0.08;;;11.20;60.50;;;;;;20647713;28;20133;-75
2020/12/28 11:44:47;;;;;;;0.45;0.30;;;11.20;60.60;;;;;;20634135;28;20104;-74
2020/12/28 11:54:48;;;;;;;0.20;0.20;;;11.10;61.00;;;;;;20634036;28;20549;-72
2020/12/28 12:04:49;;;;;;;0.20;0.20;;;11.30;60.80;;;;;;20620717;28;20536;-70
2020/12/28 12:14:50;;;;;;;2.40;1.15;;;11.30;60.60;;;;;;20629392;28;20043;-76
2020/12/28 12:24:56;;;;;;;0.35;0.35;;;11.30;60.80;;;;;;21059535;28;20377;-69
2020/12/28 12:34:57;;;;;;;0.13;0.13;;;11.50;60.90;;;;;;21039478;28;20454;-70
2020/12/28 12:44:58;;;;;;;2.28;1.13;;;11.80;60.50;;;;;;21055182;28;20555;-70
2020/12/28 12:54:58;;;;;;;0.40;0.22;;;12.00;60.00;;;;;;21039095;28;20056;-71
2020/12/28 13:05:00;;;;;;;0.80;0.25;;;12.20;59.60;;;;;;21054624;28;20032;-70
2020/12/28 13:15:00;;;;;;;0.68;0.25;;;12.20;58.60;;;;;;21037648;28;20036;-69
2020/12/28 13:25:01;;;;;;;0.43;0.32;;;12.10;58.30;;;;;;21038316;28;20039;-71
2020/12/28 13:35:03;;;;;;;1.00;0.47;;;12.00;58.20;;;;;;20972725;28;20032;-72
2020/12/28 13:45:03;;;;;;;0.55;0.32;;;11.90;58.40;;;;;;21000129;28;20101;-70
2020/12/28 13:55:04;;;;;;;1.15;0.40;;;11.70;58.80;;;;;;20998746;28;20107;-73
2020/12/28 14:05:04;;;;;;;0.85;0.20;;;11.60;59.20;;;;;;20998343;28;20045;-70
2020/12/28 14:15:05;;;;;;;0.73;0.28;;;11.60;59.50;;;;;;20978344;28;20136;-70
2020/12/28 14:25:05;;;;;;;0.20;0.20;;;11.50;59.80;;;;;;20978758;28;20024;-68
2020/12/28 14:35:06;;;;;;;0.32;0.20;;;11.50;59.90;;;;;;20991120;28;20067;-70
2020/12/28 14:45:07;;;;;;;0.95;0.30;;;11.50;60.10;;;;;;20959538;28;20036;-73
2020/12/28 14:55:07;;;;;;;0.57;0.35;;;11.40;60.20;;;;;;20978029;28;20386;-68
2020/12/28 15:05:08;;;;;;;0.53;0.33;;;11.40;60.30;;;;;;20992644;28;20303;-70
2020/12/28 15:15:09;;;;;;;0.70;0.17;;;11.40;60.60;;;;;;20957252;28;20278;-69
2020/12/28 15:25:09;;;;;;;0.20;0.20;;;11.50;61.00;;;;;;20989912;28;20024;-68
2020/12/28 15:35:10;;;;;;;0.38;0.20;;;11.70;60.90;;;;;;20988856;28;20459;-70
2020/12/28 15:45:10;;;;;;;0.70;0.30;;;12.00;60.50;;;;;;20956076;28;20352;-69
2020/12/28 15:55:11;;;;;;;0.17;0.17;;;12.10;59.60;;;;;;20971083;28;20067;-71
2020/12/28 16:05:12;;;;;;;0.10;0.10;;;12.10;58.90;;;;;;20978611;28;20041;-70
2020/12/28 16:15:12;;;;;;;0.35;0.20;;;11.90;58.80;;;;;;20961794;28;20372;-72
2020/12/28 16:25:13;;;;;;;0.25;0.25;;;11.80;59.00;;;;;;20984835;28;20033;-68
2020/12/28 16:35:13;;;;;;;0.95;0.50;;;11.90;59.60;;;;;;20989484;28;20028;-69
2020/12/28 16:45:15;;;;;;;0.25;0.25;;;11.70;59.40;;;;;;20986164;28;20064;-67
2020/12/28 16:55:16;;;;;;;0.10;0.10;;;11.70;60.10;;;;;;20969702;28;20371;-71
2020/12/28 17:05:16;;;;;;;0.15;0.15;;;11.70;60.30;;;;;;20977109;28;20041;-67
2020/12/28 17:15:17;;;;;;;0.22;0.22;;;11.70;60.20;;;;;;21001378;28;20064;-70
2020/12/28 17:25:17;;;;;;;1.52;0.47;;;11.60;60.20;;;;;;21002352;28;20036;-71
2020/12/28 17:35:18;;;;;;;0.10;0.10;;;11.60;60.40;;;;;;21000682;28;20033;-82
2020/12/28 17:45:19;;;;;;;0.82;0.30;;;11.60;60.60;;;;;;21002475;28;20112;-71
2020/12/28 17:55:20;;;;;;;1.00;0.30;;;11.60;60.70;;;;;;20999493;28;20470;-68
2020/12/28 18:05:20;;;;;;;1.92;0.60;;;11.60;60.80;;;;;;20997652;28;20036;-67
2020/12/28 18:15:21;;;;;;;0.45;0.30;;;11.60;61.00;;;;;;20980208;28;20051;-67
2020/12/28 18:25:21;;;;;;;0.20;0.20;;;11.60;61.10;;;;;;20978941;28;20116;-68
2020/12/28 18:35:22;;;;;;;0.43;0.30;;;11.60;61.20;;;;;;20944563;28;20043;-69
2020/12/28 18:45:22;;;;;;;1.30;0.63;;;11.60;61.10;;;;;;20993438;28;20062;-68
2020/12/28 18:55:23;;;;;;;0.70;0.43;;;11.60;61.30;;;;;;20994688;28;20059;-68
2020/12/28 19:05:24;;;;;;;0.32;0.32;;;11.50;61.10;;;;;;20991980;28;20432;-67
2020/12/28 19:15:24;;;;;;;1.55;0.65;;;11.40;61.40;;;;;;20974448;28;20506;-68
2020/12/28 19:25:25;;;;;;;0.20;0.20;;;11.40;61.70;;;;;;20990081;28;20525;-70
2020/12/28 19:35:25;;;;;;;0.40;0.22;;;11.30;61.80;;;;;;20989650;28;20036;-69
2020/12/28 19:45:27;;;;;;;1.30;0.50;;;11.30;62.00;;;;;;20971861;28;20383;-69
2020/12/28 19:55:27;;;;;;;0.32;0.30;;;11.30;62.10;;;;;;20971916;28;20028;-69
2020/12/28 20:05:28;;;;;;;0.30;0.30;;;11.30;62.10;;;;;;20989527;28;20481;-70
2020/12/28 20:15:28;;;;;;;0.50;0.20;;;11.20;62.20;;;;;;20987946;28;20040;-69
2020/12/28 20:25:30;;;;;;;0.28;0.28;;;11.30;62.20;;;;;;20971021;28;20067;-68
2020/12/28 20:35:31;;;;;;;0.68;0.38;;;11.20;62.20;;;;;;20984851;28;20032;-69
2020/12/28 20:45:31;;;;;;;0.90;0.52;;;11.20;62.20;;;;;;20983082;28;20048;-69
2020/12/28 20:55:39;;;;;;;0.68;0.57;;;11.20;62.30;;;;;;21000951;28;20058;-69
2020/12/28 21:05:40;;;;;;;0.82;0.57;;;11.20;62.30;;;;;;21000162;28;20028;-70
2020/12/28 21:15:40;;;;;;;2.08;1.08;;;11.20;62.30;;;;;;20998693;28;20056;-70
2020/12/28 21:25:41;;;;;;;0.30;0.30;;;11.20;62.30;;;;;;20998488;28;20068;-70
2020/12/28 21:35:41;;;;;;;0.43;0.25;;;11.20;62.30;;;;;;20981199;28;20028;-69
2020/12/28 21:45:42;;;;;;;0.70;0.35;;;11.20;62.30;;;;;;20998873;28;20036;-69
2020/12/28 21:55:43;;;;;;;0.70;0.50;;;11.20;62.30;;;;;;20998823;28;20116;-68
2020/12/28 22:05:43;;;;;;;1.33;0.47;;;11.20;62.30;;;;;;20997261;28;20044;-71
2020/12/28 22:15:44;;;;;;;0.22;0.20;;;11.20;62.30;;;;;;20980109;28;20082;-70
2020/12/28 22:25:44;;;;;;;0.20;0.20;;;11.20;62.30;;;;;;20979582;28;20032;-69
2020/12/28 22:35:45;;;;;;;1.67;0.40;;;11.20;62.40;;;;;;20992914;28;20036;-69
2020/12/28 22:45:46;;;;;;;0.40;0.30;;;11.20;62.40;;;;;;20994297;28;20391;-69
2020/12/28 22:55:46;;;;;;;0.28;0.25;;;11.10;62.90;;;;;;20968726;28;20040;-69
2020/12/28 23:05:47;;;;;;;1.02;0.60;;;11.10;62.20;;;;;;20992995;28;20067;-70
2020/12/28 23:15:48;;;;;;;1.45;0.55;;;11.10;62.30;;;;;;20975228;28;20059;-70
2020/12/28 23:25:48;;;;;;;1.10;0.40;;;11.10;62.30;;;;;;20974716;28;20587;-69
2020/12/28 23:35:49;;;;;;;1.05;0.63;;;11.10;62.30;;;;;;20955893;28;20368;-69
2020/12/28 23:45:53;;;;;;;1.15;0.50;;;11.10;62.30;;;;;;20971702;28;20428;-69
2020/12/28 23:55:53;;;;;;;1.10;0.63;;;11.10;62.30;;;;;;20955931;28;20506;-69
